createdAt,value
2022-08-31T00:00:56.343Z,101285.31
2022-08-31T00:06:02.586Z,101278.94
2022-08-31T00:11:04.382Z,101280.59
2022-08-31T00:16:10.723Z,101286.78
2022-08-31T00:21:12.629Z,101272.06
2022-08-31T00:26:15.532Z,101274.25
2022-08-31T00:31:17.910Z,101273.69
2022-08-31T00:36:23.307Z,101272.66
2022-08-31T00:41:28.031Z,101286.09
2022-08-31T00:46:32.957Z,101281.34
2022-08-31T00:51:40.787Z,101290.34
2022-08-31T00:56:43.083Z,101289.44
2022-08-31T01:01:45.256Z,101289.28
2022-08-31T01:06:49.095Z,101293.50
2022-08-31T01:11:51.150Z,101301.13
2022-08-31T01:16:55.168Z,101289.66
2022-08-31T01:22:04.611Z,101298.19
2022-08-31T01:27:07.414Z,101300.88
2022-08-31T01:32:09.218Z,101307.56
2022-08-31T01:37:12.023Z,101312.22
2022-08-31T01:42:15.195Z,101309.13
2022-08-31T01:47:17.119Z,101311.94
2022-08-31T01:52:18.820Z,101297.84
2022-08-31T01:57:21.770Z,101295.47
2022-08-31T02:02:50.094Z,101298.38
2022-08-31T02:07:52.153Z,101302.81
2022-08-31T02:12:54.092Z,101312.13
2022-08-31T02:18:04.187Z,101305.13
2022-08-31T02:23:06.306Z,101302.81
2022-08-31T02:28:09.080Z,101306.56
2022-08-31T02:33:11.461Z,101309.59
2022-08-31T02:38:13.434Z,101306.72
2022-08-31T02:43:17.536Z,101310.63
2022-08-31T02:48:28.623Z,101311.81
2022-08-31T02:53:30.275Z,101312.13
2022-08-31T02:58:31.961Z,101324.16
2022-08-31T03:03:35.507Z,101324.19
2022-08-31T03:08:37.163Z,101316.94
2022-08-31T03:13:39.846Z,101321.22
2022-08-31T03:18:41.914Z,101315.47
2022-08-31T03:23:44.056Z,101323.00
2022-08-31T03:28:46.484Z,101320.63
2022-08-31T03:34:26.408Z,101315.94
2022-08-31T03:39:28.310Z,101309.38
2022-08-31T03:44:30.073Z,101321.13
2022-08-31T03:49:31.896Z,101330.06
2022-08-31T03:54:43.463Z,101342.50
2022-08-31T03:59:45.189Z,101331.50
2022-08-31T04:04:54.158Z,101324.97
2022-08-31T04:10:15.051Z,101328.22
2022-08-31T04:15:39.232Z,101325.16
2022-08-31T04:20:59.730Z,101323.06
2022-08-31T04:26:01.531Z,101317.06
2022-08-31T04:31:06.238Z,101322.38
2022-08-31T04:36:10.024Z,101329.06
2022-08-31T04:41:13.947Z,101328.69
2022-08-31T04:46:17.724Z,101331.13
2022-08-31T04:51:23.596Z,101320.75
2022-08-31T04:56:28.750Z,101335.41
2022-08-31T05:01:42.766Z,101340.31
2022-08-31T05:07:20.317Z,101344.88
2022-08-31T05:12:22.855Z,101348.19
2022-08-31T05:17:24.552Z,101356.44
2022-08-31T05:22:29.415Z,101355.13
2022-08-31T05:27:32.100Z,101344.66
2022-08-31T05:32:35.131Z,101349.09
2022-08-31T05:37:40.399Z,101347.19
2022-08-31T05:42:43.085Z,101354.56
2022-08-31T05:47:44.762Z,101352.47
2022-08-31T05:52:46.813Z,101356.38
2022-08-31T05:57:48.928Z,101361.44
2022-08-31T06:02:53.799Z,101359.03
2022-08-31T06:07:56.059Z,101365.28
2022-08-31T06:12:58.579Z,101372.47
2022-08-31T06:18:00.334Z,101369.44
2022-08-31T06:23:02.905Z,101369.59
2022-08-31T06:28:16.156Z,101367.03
2022-08-31T06:33:18.241Z,101371.03
2022-08-31T06:38:32.869Z,101371.97
2022-08-31T06:44:06.282Z,101381.41
2022-08-31T06:49:30.129Z,101369.16
2022-08-31T06:54:32.392Z,101378.09
2022-08-31T06:59:53.857Z,101384.03
2022-08-31T07:05:08.999Z,101390.28
2022-08-31T07:10:12.660Z,101394.00
2022-08-31T07:15:15.345Z,101388.09
2022-08-31T07:20:17.329Z,101391.56
2022-08-31T07:25:20.004Z,101389.47
2022-08-31T07:30:24.171Z,101391.69
2022-08-31T07:35:25.932Z,101392.69
2022-08-31T07:40:50.469Z,101392.13
2022-08-31T07:45:53.773Z,101403.00
2022-08-31T07:50:59.318Z,101409.03
2022-08-31T07:56:17.548Z,101416.13
2022-08-31T08:01:20.363Z,101421.41
2022-08-31T08:06:22.362Z,101416.13
2022-08-31T08:11:45.272Z,101422.22
2022-08-31T08:17:03.558Z,101417.69
2022-08-31T08:22:11.198Z,101418.41
2022-08-31T08:27:32.027Z,101424.59
2022-08-31T08:32:45.497Z,101428.81
2022-08-31T08:37:58.589Z,101430.72
2022-08-31T08:43:03.977Z,101433.31
2022-08-31T08:48:06.125Z,101438.19
2022-08-31T08:53:11.405Z,101441.22
2022-08-31T08:58:19.992Z,101442.22
2022-08-31T09:03:36.382Z,101439.63
2022-08-31T09:09:24.521Z,101441.91
2022-08-31T09:14:48.488Z,101451.31
2022-08-31T09:19:51.248Z,101440.13
2022-08-31T09:24:53.345Z,101443.06
2022-08-31T09:30:32.757Z,101445.97
2022-08-31T09:35:37.519Z,101450.22
2022-08-31T09:40:41.699Z,101450.81
2022-08-31T09:46:05.623Z,101459.75
2022-08-31T09:51:07.410Z,101468.00
2022-08-31T09:56:10.802Z,101460.75
2022-08-31T10:01:17.908Z,101458.75
2022-08-31T10:06:40.024Z,101455.78
2022-08-31T10:11:45.165Z,101451.34
2022-08-31T10:16:53.071Z,101451.50
2022-08-31T10:21:59.508Z,101451.75
2022-08-31T10:27:15.120Z,101447.78
2022-08-31T10:32:38.661Z,101447.47
2022-08-31T10:37:48.054Z,101453.53
2022-08-31T10:43:14.068Z,101450.88
2022-08-31T10:48:18.330Z,101446.03
2022-08-31T10:53:40.316Z,101442.34
2022-08-31T10:59:02.348Z,101445.72
2022-08-31T11:04:22.070Z,101446.22
2022-08-31T11:09:29.022Z,101443.81
2022-08-31T11:14:51.833Z,101442.34
2022-08-31T11:19:59.284Z,101440.03
2022-08-31T11:25:09.201Z,101437.41
2022-08-31T11:30:29.686Z,101441.56
2022-08-31T11:36:06.716Z,101438.81
2022-08-31T11:41:09.741Z,101430.25
2022-08-31T11:46:23.320Z,101429.69
2022-08-31T11:51:57.648Z,101422.44
2022-08-31T11:56:59.436Z,101423.78
2022-08-31T12:02:19.398Z,101420.59
2022-08-31T12:07:31.616Z,101415.94
2022-08-31T12:12:48.196Z,101403.69
2022-08-31T12:17:55.579Z,101400.94
2022-08-31T12:23:30.088Z,101399.28
2022-08-31T12:28:51.723Z,101386.75
2022-08-31T12:34:05.426Z,101388.28
2022-08-31T12:39:28.351Z,101385.44
2022-08-31T12:44:36.979Z,101386.97
2022-08-31T12:49:39.599Z,101381.34
2022-08-31T12:54:59.393Z,101376.00
2022-08-31T13:00:13.114Z,101375.03
2022-08-31T13:05:21.261Z,101372.28
2022-08-31T13:10:34.804Z,101363.03
2022-08-31T13:15:43.067Z,101364.81
2022-08-31T13:20:45.399Z,101358.28
2022-08-31T13:26:15.296Z,101352.38
2022-08-31T13:31:26.740Z,101350.47
2022-08-31T13:36:31.922Z,101344.84
2022-08-31T13:41:37.796Z,101338.03
2022-08-31T13:46:44.119Z,101330.72
2022-08-31T13:51:46.825Z,101338.22
2022-08-31T13:56:48.553Z,101338.91
2022-08-31T14:02:26.959Z,101322.28
2022-08-31T14:07:35.400Z,101313.19
2022-08-31T14:12:48.576Z,101320.41
2022-08-31T14:23:18.949Z,101310.88
2022-08-31T14:28:21.850Z,101316.03
2022-08-31T14:33:23.856Z,101320.38
2022-08-31T14:38:25.441Z,101308.28
2022-08-31T14:43:27.266Z,101303.47
2022-08-31T14:48:28.976Z,101297.28
2022-08-31T14:53:30.640Z,101300.97
2022-08-31T14:58:32.452Z,101304.13
2022-08-31T15:03:34.799Z,101301.81
2022-08-31T15:08:38.713Z,101306.63
2022-08-31T15:13:40.627Z,101297.47
2022-08-31T15:18:42.441Z,101301.78
2022-08-31T15:23:44.005Z,101300.34
2022-08-31T15:28:45.806Z,101300.31
2022-08-31T15:33:47.898Z,101295.41
2022-08-31T15:38:50.236Z,101288.31
2022-08-31T15:43:55.389Z,101284.56
2022-08-31T15:48:57.149Z,101280.53
2022-08-31T15:54:20.850Z,101277.56
2022-08-31T15:59:22.549Z,101284.59
2022-08-31T16:04:24.393Z,101274.88
2022-08-31T16:09:27.240Z,101271.44
2022-08-31T16:14:29.209Z,101273.28
2022-08-31T16:19:35.402Z,101270.03
2022-08-31T16:24:38.065Z,101268.09
2022-08-31T16:29:41.052Z,101259.72
2022-08-31T16:34:42.853Z,101262.00
2022-08-31T16:39:45.218Z,101267.38
2022-08-31T16:44:48.024Z,101251.88
2022-08-31T16:49:50.045Z,101261.75
2022-08-31T16:54:52.726Z,101257.31
2022-08-31T16:59:56.149Z,101261.94
2022-08-31T17:04:57.751Z,101268.13
2022-08-31T17:09:59.851Z,101262.66
2022-08-31T17:15:02.367Z,101261.41
2022-08-31T17:20:05.090Z,101270.00
2022-08-31T17:25:07.370Z,101267.72
2022-08-31T17:30:09.603Z,101268.47
2022-08-31T17:35:11.411Z,101267.38
2022-08-31T17:40:13.138Z,101263.97
2022-08-31T17:45:14.941Z,101258.13
2022-08-31T17:50:16.818Z,101266.75
2022-08-31T17:55:18.583Z,101270.22
2022-08-31T18:00:20.552Z,101271.97
2022-08-31T18:05:22.510Z,101268.97
2022-08-31T18:10:24.332Z,101278.28
2022-08-31T18:15:26.141Z,101280.69
2022-08-31T18:20:27.742Z,101285.13
2022-08-31T18:25:35.986Z,101299.41
2022-08-31T18:30:39.181Z,101300.59
2022-08-31T18:35:46.967Z,101303.22
2022-08-31T18:40:49.048Z,101309.41
2022-08-31T18:45:51.568Z,101305.28
2022-08-31T18:50:54.052Z,101307.50
2022-08-31T18:55:55.794Z,101312.72
2022-08-31T19:00:58.751Z,101316.19
2022-08-31T19:06:05.174Z,101322.38
2022-08-31T19:11:08.437Z,101326.28
2022-08-31T19:16:20.433Z,101332.06
2022-08-31T19:21:28.565Z,101334.53
2022-08-31T19:26:37.824Z,101342.13
2022-08-31T19:31:41.996Z,101338.75
2022-08-31T19:36:45.368Z,101336.94
2022-08-31T19:41:51.904Z,101345.41
2022-08-31T19:46:55.704Z,101345.53
2022-08-31T19:52:00.502Z,101347.72
2022-08-31T19:57:02.437Z,101343.50
2022-08-31T20:02:05.654Z,101347.19
2022-08-31T20:07:08.208Z,101345.34
2022-08-31T20:12:11.027Z,101353.19
2022-08-31T20:17:12.776Z,101352.81
2022-08-31T20:22:14.535Z,101360.97
2022-08-31T20:27:16.465Z,101347.63
2022-08-31T20:32:20.699Z,101345.88
2022-08-31T20:37:22.463Z,101350.22
2022-08-31T20:42:24.714Z,101352.75
2022-08-31T20:47:26.439Z,101360.13
2022-08-31T20:52:31.680Z,101352.78
2022-08-31T20:57:35.917Z,101359.22
2022-08-31T21:02:38.082Z,101353.25
2022-08-31T21:07:40.656Z,101352.19
2022-08-31T21:12:42.695Z,101353.63
2022-08-31T21:17:44.895Z,101349.53
2022-08-31T21:22:47.159Z,101346.28
2022-08-31T21:27:48.839Z,101352.44
2022-08-31T21:32:50.470Z,101357.59
2022-08-31T21:37:52.151Z,101352.19
2022-08-31T21:42:53.963Z,101360.97
2022-08-31T21:47:55.674Z,101362.38
2022-08-31T21:53:00.398Z,101361.91
2022-08-31T21:58:02.324Z,101369.19
2022-08-31T22:03:03.956Z,101367.78
2022-08-31T22:08:05.561Z,101369.59
2022-08-31T22:13:08.775Z,101365.09
2022-08-31T22:18:58.217Z,101375.88
2022-08-31T22:23:33.486Z,101384.38
2022-08-31T22:28:35.595Z,101373.34
2022-08-31T22:33:38.098Z,101387.03
2022-08-31T22:38:43.620Z,101383.34
2022-08-31T22:43:46.373Z,101383.91
2022-08-31T22:48:48.014Z,101382.53
2022-08-31T22:53:50.604Z,101376.06
2022-08-31T22:58:54.409Z,101371.63
2022-08-31T23:03:58.939Z,101361.75
2022-08-31T23:09:02.171Z,101360.94
2022-08-31T23:14:07.446Z,101362.09
2022-08-31T23:19:15.581Z,101355.50
2022-08-31T23:24:29.419Z,101353.75
2022-08-31T23:29:33.578Z,101362.81
2022-08-31T23:34:35.337Z,101366.56
2022-08-31T23:39:41.540Z,101361.72
2022-08-31T23:44:44.963Z,101359.31
2022-08-31T23:49:47.624Z,101360.72
2022-08-31T23:54:52.713Z,101362.19
